createdAt,value
2022-11-01T00:01:56.482Z,7.70
2022-11-01T00:04:24.019Z,7.70
2022-11-01T00:06:51.463Z,7.80
2022-11-01T00:09:18.657Z,7.80
2022-11-01T00:11:45.585Z,7.80
2022-11-01T00:14:14.020Z,7.90
2022-11-01T00:16:41.200Z,7.90
2022-11-01T00:19:08.065Z,7.90
2022-11-01T00:21:35.419Z,7.80
2022-11-01T00:24:02.328Z,7.80
2022-11-01T00:26:29.386Z,7.80
2022-11-01T00:28:56.258Z,7.80
2022-11-01T00:31:23.255Z,7.80
2022-11-01T00:33:50.220Z,7.80
2022-11-01T00:36:17.161Z,7.80
2022-11-01T00:38:44.051Z,7.80
2022-11-01T00:41:10.948Z,7.80
2022-11-01T00:43:37.816Z,7.80
2022-11-01T00:46:05.194Z,7.80
2022-11-01T00:48:32.258Z,7.80
2022-11-01T00:50:59.168Z,7.80
2022-11-01T00:53:26.017Z,7.80
2022-11-01T00:55:53.427Z,7.70
2022-11-01T00:58:20.299Z,7.70
2022-11-01T01:00:48.232Z,7.70
2022-11-01T01:03:15.310Z,7.60
2022-11-01T01:05:42.341Z,7.60
2022-11-01T01:08:09.220Z,7.60
2022-11-01T01:10:36.594Z,7.60
2022-11-01T01:13:04.257Z,7.50
2022-11-01T01:15:31.637Z,7.50
2022-11-01T01:17:58.788Z,7.60
2022-11-01T01:20:25.807Z,7.60
2022-11-01T01:22:53.386Z,7.60
2022-11-01T01:25:21.022Z,7.60
2022-11-01T01:27:48.068Z,7.60
2022-11-01T01:30:15.339Z,7.60
2022-11-01T01:32:42.456Z,7.60
2022-11-01T01:35:09.824Z,7.60
2022-11-01T01:37:36.865Z,7.60
2022-11-01T01:40:05.013Z,7.60
2022-11-01T01:42:35.089Z,7.60
2022-11-01T01:45:04.864Z,7.50
2022-11-01T01:47:34.856Z,7.50
2022-11-01T01:50:11.016Z,7.40
2022-11-01T01:52:50.750Z,7.30
2022-11-01T01:55:23.231Z,7.30
2022-11-01T01:57:51.617Z,7.20
2022-11-01T02:00:19.570Z,7.10
2022-11-01T02:02:46.580Z,7.00
2022-11-01T02:05:39.193Z,6.90
2022-11-01T02:08:07.099Z,6.80
2022-11-01T02:10:34.985Z,6.70
2022-11-01T02:13:02.050Z,6.60
2022-11-01T02:15:41.848Z,6.50
2022-11-01T02:18:17.521Z,6.40
2022-11-01T02:21:12.514Z,6.30
2022-11-01T02:23:50.139Z,6.20
2022-11-01T02:26:41.520Z,6.10
2022-11-01T02:29:47.345Z,6.00
2022-11-01T02:32:27.691Z,5.90
2022-11-01T02:35:25.998Z,5.80
2022-11-01T02:37:58.500Z,5.70
2022-11-01T02:40:33.481Z,5.70
2022-11-01T02:43:06.443Z,5.80
2022-11-01T02:45:42.110Z,5.70
2022-11-01T02:48:09.751Z,5.70
2022-11-01T02:50:43.781Z,5.70
2022-11-01T02:53:11.192Z,5.80
2022-11-01T02:55:38.129Z,5.80
2022-11-01T02:58:25.148Z,5.80
2022-11-01T03:00:52.364Z,5.90
2022-11-01T03:03:32.543Z,5.80
2022-11-01T03:06:12.265Z,5.80
2022-11-01T03:08:44.259Z,5.90
2022-11-01T03:11:20.549Z,5.90
2022-11-01T03:13:56.619Z,5.90
2022-11-01T03:16:35.819Z,5.90
2022-11-01T03:19:26.861Z,6.00
2022-11-01T03:22:06.124Z,6.00
2022-11-01T03:24:45.887Z,6.00
2022-11-01T03:27:41.270Z,6.00
2022-11-01T03:30:14.238Z,6.10
2022-11-01T03:32:55.815Z,6.10
2022-11-01T03:35:30.895Z,6.20
2022-11-01T03:38:04.637Z,6.20
2022-11-01T03:40:34.370Z,6.30
2022-11-01T03:43:06.763Z,6.30
2022-11-01T03:45:37.945Z,6.30
2022-11-01T03:48:05.999Z,6.30
2022-11-01T03:50:33.414Z,6.30
2022-11-01T03:53:00.517Z,6.30
2022-11-01T03:55:27.416Z,6.20
2022-11-01T03:58:00.107Z,6.30
2022-11-01T04:00:33.314Z,6.30
2022-11-01T04:03:01.159Z,6.20
2022-11-01T04:05:30.893Z,6.20
2022-11-01T04:07:57.810Z,6.10
2022-11-01T04:10:26.392Z,6.00
2022-11-01T04:12:57.139Z,6.00
2022-11-01T04:15:44.161Z,6.00
2022-11-01T04:18:29.823Z,6.00
2022-11-01T04:20:56.853Z,5.90
2022-11-01T04:23:23.733Z,5.90
2022-11-01T04:25:50.579Z,5.80
2022-11-01T04:28:17.630Z,5.80
2022-11-01T04:30:44.474Z,5.70
2022-11-01T04:33:11.323Z,5.70
2022-11-01T04:35:38.564Z,5.70
2022-11-01T04:38:06.197Z,5.80
2022-11-01T04:40:34.457Z,5.80
2022-11-01T04:43:02.089Z,5.80
2022-11-01T04:45:29.006Z,5.80
2022-11-01T04:48:04.315Z,5.80
2022-11-01T04:50:31.441Z,5.90
2022-11-01T04:53:00.149Z,5.90
2022-11-01T04:55:27.991Z,5.90
2022-11-01T04:57:54.955Z,6.00
2022-11-01T05:00:23.167Z,6.00
2022-11-01T05:02:50.490Z,6.00
2022-11-01T05:05:18.121Z,6.00
2022-11-01T05:07:45.708Z,6.00
2022-11-01T05:10:13.161Z,6.10
2022-11-01T05:12:40.035Z,6.10
2022-11-01T05:15:07.608Z,6.20
2022-11-01T05:17:34.486Z,6.20
2022-11-01T05:20:01.332Z,6.20
2022-11-01T05:22:28.204Z,6.20
2022-11-01T05:24:59.129Z,6.30
2022-11-01T05:27:25.869Z,6.30
2022-11-01T05:29:52.748Z,6.30
2022-11-01T05:32:19.626Z,6.30
2022-11-01T05:34:46.919Z,6.40
2022-11-01T05:37:13.884Z,6.40
2022-11-01T05:39:40.811Z,6.40
2022-11-01T05:42:07.909Z,6.50
2022-11-01T05:44:34.797Z,6.50
2022-11-01T05:47:05.672Z,6.50
2022-11-01T05:49:35.433Z,6.50
2022-11-01T05:52:02.275Z,6.60
2022-11-01T05:54:29.116Z,6.60
2022-11-01T05:56:55.985Z,6.60
2022-11-01T05:59:22.821Z,6.60
2022-11-01T06:01:49.767Z,6.70
2022-11-01T06:04:16.804Z,6.70
2022-11-01T06:06:43.709Z,6.70
2022-11-01T06:09:10.753Z,6.80
2022-11-01T06:11:41.515Z,6.80
2022-11-01T06:14:11.691Z,6.90
2022-11-01T06:16:38.541Z,7.00
2022-11-01T06:19:05.368Z,7.00
2022-11-01T06:21:32.277Z,7.00
2022-11-01T06:23:59.150Z,7.10
2022-11-01T06:26:26.042Z,7.10
2022-11-01T06:28:52.917Z,7.10
2022-11-01T06:31:19.868Z,7.10
2022-11-01T06:33:50.398Z,7.20
2022-11-01T06:36:17.311Z,7.20
2022-11-01T06:38:44.168Z,7.30
2022-11-01T06:41:11.005Z,7.30
2022-11-01T06:43:37.790Z,7.40
2022-11-01T06:46:04.892Z,7.50
2022-11-01T06:48:31.866Z,7.60
2022-11-01T06:50:58.801Z,7.70
2022-11-01T06:53:25.952Z,7.70
2022-11-01T06:55:52.929Z,7.80
2022-11-01T06:58:20.196Z,7.80
2022-11-01T07:00:48.067Z,7.90
2022-11-01T07:03:15.335Z,7.90
2022-11-01T07:05:43.033Z,7.80
2022-11-01T07:08:13.110Z,7.90
2022-11-01T07:10:42.624Z,7.90
2022-11-01T07:13:11.805Z,7.90
2022-11-01T07:15:38.789Z,8.00
2022-11-01T07:18:08.352Z,8.10
2022-11-01T07:20:41.622Z,8.10
2022-11-01T07:23:18.014Z,8.20
2022-11-01T07:25:44.916Z,8.30
2022-11-01T07:28:12.269Z,8.40
2022-11-01T07:30:39.549Z,8.40
2022-11-01T07:33:07.195Z,8.40
2022-11-01T07:35:35.205Z,8.40
2022-11-01T07:38:04.998Z,8.30
2022-11-01T07:40:35.892Z,8.30
2022-11-01T07:43:03.865Z,8.20
2022-11-01T07:45:32.719Z,8.20
2022-11-01T07:48:06.418Z,8.10
2022-11-01T07:50:34.317Z,8.00
2022-11-01T07:53:06.309Z,8.00
2022-11-01T07:55:34.072Z,7.90
2022-11-01T07:58:01.325Z,7.80
2022-11-01T08:00:28.942Z,7.80
2022-11-01T08:03:07.032Z,7.80
2022-11-01T08:05:34.519Z,7.80
2022-11-01T08:08:01.952Z,7.80
2022-11-01T08:10:30.297Z,7.90
2022-11-01T08:13:14.562Z,8.10
2022-11-01T08:15:41.662Z,8.40
2022-11-01T08:18:08.815Z,8.70
2022-11-01T08:20:36.162Z,9.10
2022-11-01T08:23:04.306Z,9.50
2022-11-01T08:25:31.677Z,9.90
2022-11-01T08:28:06.789Z,10.30
2022-11-01T08:30:34.339Z,10.60
2022-11-01T08:33:03.006Z,10.70
2022-11-01T08:35:31.137Z,10.80
2022-11-01T08:37:59.206Z,10.70
2022-11-01T08:40:28.419Z,10.70
2022-11-01T08:42:55.672Z,10.70
2022-11-01T08:45:22.790Z,10.70
2022-11-01T08:47:49.867Z,10.70
2022-11-01T08:50:18.020Z,10.70
2022-11-01T08:52:44.958Z,10.80
2022-11-01T08:55:11.888Z,10.90
2022-11-01T08:57:38.812Z,10.90
2022-11-01T09:00:13.500Z,11.00
2022-11-01T09:02:40.412Z,11.10
2022-11-01T09:05:07.740Z,11.20
2022-11-01T09:07:35.824Z,11.20
2022-11-01T09:10:02.820Z,11.20
2022-11-01T09:12:29.902Z,11.20
2022-11-01T09:14:56.776Z,11.30
2022-11-01T09:17:23.628Z,11.30
2022-11-01T09:19:50.679Z,11.30
2022-11-01T09:22:17.677Z,11.30
2022-11-01T09:24:44.590Z,11.30
2022-11-01T09:27:11.633Z,11.30
2022-11-01T09:29:38.602Z,11.40
2022-11-01T09:32:06.814Z,11.40
2022-11-01T09:34:34.217Z,11.50
2022-11-01T09:37:01.251Z,11.60
2022-11-01T09:39:28.116Z,11.70
2022-11-01T09:42:02.507Z,11.70
2022-11-01T09:44:34.380Z,11.70
2022-11-01T09:47:12.729Z,11.70
2022-11-01T09:49:43.909Z,11.70
2022-11-01T09:52:20.409Z,11.60
2022-11-01T09:54:48.533Z,11.70
2022-11-01T09:57:36.313Z,11.70
2022-11-01T10:00:13.600Z,11.70
2022-11-01T10:03:07.649Z,11.70
2022-11-01T10:06:16.078Z,11.60
2022-11-01T10:09:09.477Z,11.60
2022-11-01T10:11:54.003Z,11.50
2022-11-01T10:14:32.551Z,11.50
2022-11-01T10:17:13.559Z,11.50
2022-11-01T10:19:42.650Z,11.50
2022-11-01T10:22:19.638Z,11.50
2022-11-01T10:25:07.053Z,11.50
2022-11-01T10:27:56.121Z,11.50
2022-11-01T10:30:23.191Z,11.50
2022-11-01T10:33:12.629Z,11.50
2022-11-01T10:35:43.527Z,11.40
2022-11-01T10:41:29.670Z,11.40
2022-11-01T10:44:01.186Z,11.40
2022-11-01T10:46:32.271Z,11.40
2022-11-01T10:49:03.254Z,11.30
2022-11-01T10:51:32.737Z,11.30
2022-11-01T10:54:03.441Z,11.40
2022-11-01T10:56:41.938Z,11.40
2022-11-01T10:59:24.202Z,11.40
2022-11-01T11:01:53.181Z,11.50
2022-11-01T11:04:24.817Z,11.50
2022-11-01T11:06:52.424Z,11.50
2022-11-01T11:09:21.603Z,11.50
2022-11-01T11:11:50.651Z,11.50
2022-11-01T11:14:20.189Z,11.50
2022-11-01T11:16:55.697Z,11.50
2022-11-01T11:19:31.883Z,11.50
2022-11-01T11:22:00.061Z,11.60
2022-11-01T11:24:36.061Z,11.50
2022-11-01T11:27:04.761Z,11.50
2022-11-01T11:29:51.037Z,11.60
2022-11-01T11:32:39.013Z,11.60
2022-11-01T11:35:16.424Z,11.60
2022-11-01T11:38:05.013Z,11.60
2022-11-01T11:40:40.976Z,11.60
2022-11-01T11:43:31.264Z,11.60
2022-11-01T11:46:10.263Z,11.70
2022-11-01T11:48:48.557Z,11.70
2022-11-01T11:51:15.689Z,11.80
2022-11-01T11:53:42.712Z,11.80
2022-11-01T11:56:12.235Z,11.80
2022-11-01T11:58:44.432Z,11.70
2022-11-01T12:01:15.740Z,11.70
2022-11-01T12:03:59.890Z,11.70
2022-11-01T12:06:28.868Z,11.70
2022-11-01T12:09:00.143Z,11.70
2022-11-01T12:11:45.772Z,11.70
2022-11-01T12:14:23.296Z,11.70
2022-11-01T12:16:50.302Z,11.70
2022-11-01T12:19:28.617Z,11.70
2022-11-01T12:22:02.304Z,11.80
2022-11-01T12:24:44.966Z,11.80
2022-11-01T12:27:18.849Z,11.70
2022-11-01T12:29:52.219Z,11.80
2022-11-01T12:32:26.278Z,11.90
2022-11-01T12:34:56.400Z,11.90
2022-11-01T12:37:51.492Z,11.90
2022-11-01T12:40:23.679Z,12.00
2022-11-01T12:42:55.121Z,12.00
2022-11-01T12:46:01.237Z,12.00
2022-11-01T12:48:36.623Z,11.90
2022-11-01T12:51:25.723Z,11.90
2022-11-01T12:54:35.690Z,11.90
2022-11-01T12:57:02.585Z,11.90
2022-11-01T12:59:36.827Z,11.90
2022-11-01T13:02:19.796Z,11.80
2022-11-01T13:05:12.261Z,11.80
2022-11-01T13:07:57.549Z,11.70
2022-11-01T13:13:29.626Z,11.70
2022-11-01T13:16:16.880Z,11.70
2022-11-01T13:18:59.046Z,11.70
2022-11-01T13:21:56.096Z,11.60
2022-11-01T13:24:29.824Z,11.60
2022-11-01T13:27:07.204Z,11.50
2022-11-01T13:29:45.431Z,11.50
2022-11-01T13:32:20.562Z,11.50
2022-11-01T13:34:50.708Z,11.50
2022-11-01T13:37:40.633Z,11.50
2022-11-01T13:40:29.078Z,11.50
2022-11-01T13:42:59.080Z,11.40
2022-11-01T13:45:35.117Z,11.40
2022-11-01T13:48:26.073Z,11.40
2022-11-01T13:50:52.940Z,11.40
2022-11-01T13:53:28.256Z,11.40
2022-11-01T13:56:16.033Z,11.30
2022-11-01T13:58:45.775Z,11.30
2022-11-01T14:01:38.895Z,11.20
2022-11-01T14:04:12.165Z,11.20
2022-11-01T14:06:41.955Z,11.20
2022-11-01T14:09:24.108Z,11.20
2022-11-01T14:11:55.158Z,11.10
2022-11-01T14:14:31.226Z,11.10
2022-11-01T14:17:16.279Z,11.10
2022-11-01T14:19:44.063Z,11.00
2022-11-01T14:22:24.174Z,11.00
2022-11-01T14:24:57.796Z,11.00
2022-11-01T14:27:38.549Z,10.90
2022-11-01T14:30:30.845Z,10.90
2022-11-01T14:33:00.145Z,10.80
2022-11-01T14:35:35.776Z,10.80
2022-11-01T14:38:11.670Z,10.70
2022-11-01T14:40:52.687Z,10.70
2022-11-01T14:43:36.092Z,10.70
2022-11-01T14:46:20.291Z,10.60
2022-11-01T14:49:05.589Z,10.50
2022-11-01T14:51:41.275Z,10.50
2022-11-01T14:54:14.103Z,10.50
2022-11-01T14:56:41.409Z,10.50
2022-11-01T14:59:22.193Z,10.40
2022-11-01T15:01:52.603Z,10.40
2022-11-01T15:04:29.801Z,10.40
2022-11-01T15:06:58.952Z,10.40
2022-11-01T15:09:31.175Z,10.30
2022-11-01T15:12:10.950Z,10.30
2022-11-01T15:14:42.244Z,10.30
2022-11-01T15:17:28.929Z,10.20
2022-11-01T15:19:57.326Z,10.10
2022-11-01T15:22:28.119Z,10.00
2022-11-01T15:25:00.998Z,10.00
2022-11-01T15:27:44.367Z,10.00
2022-11-01T15:30:24.465Z,10.00
2022-11-01T15:33:12.986Z,10.00
2022-11-01T15:35:40.185Z,10.00
2022-11-01T15:38:25.800Z,10.00
2022-11-01T15:40:53.518Z,10.00
2022-11-01T15:43:28.256Z,9.90
2022-11-01T15:45:58.649Z,9.90
2022-11-01T15:48:30.047Z,9.90
2022-11-01T15:51:01.853Z,9.80
2022-11-01T15:53:32.079Z,9.90
2022-11-01T15:56:08.688Z,9.90
2022-11-01T15:58:50.922Z,9.90
2022-11-01T16:01:22.495Z,9.80
2022-11-01T16:04:22.047Z,9.80
2022-11-01T16:06:57.513Z,9.80
2022-11-01T16:09:50.851Z,9.80
2022-11-01T16:12:21.931Z,9.80
2022-11-01T16:15:00.155Z,9.80
2022-11-01T16:17:40.873Z,9.80
2022-11-01T16:20:28.922Z,9.80
2022-11-01T16:22:58.818Z,9.80
2022-11-01T16:25:27.671Z,9.80
2022-11-01T16:28:14.953Z,9.80
2022-11-01T16:30:55.863Z,9.80
2022-11-01T16:33:35.716Z,9.80
2022-11-01T16:36:23.334Z,9.80
2022-11-01T16:38:53.755Z,9.80
2022-11-01T16:41:24.318Z,9.80
2022-11-01T16:43:56.988Z,9.80
2022-11-01T16:46:26.776Z,9.80
2022-11-01T16:48:59.510Z,9.70
2022-11-01T16:51:29.839Z,9.70
2022-11-01T16:53:58.036Z,9.70
2022-11-01T16:56:37.618Z,9.70
2022-11-01T16:59:25.129Z,9.60
2022-11-01T17:01:55.006Z,9.60
2022-11-01T17:04:22.799Z,9.60
2022-11-01T17:06:50.727Z,9.60
2022-11-01T17:09:20.031Z,9.60
2022-11-01T17:11:51.533Z,9.60
2022-11-01T17:14:19.798Z,9.50
2022-11-01T17:16:48.269Z,9.60
2022-11-01T17:19:28.473Z,9.60
2022-11-01T17:21:56.095Z,9.50
2022-11-01T17:24:25.869Z,9.50
2022-11-01T17:26:54.265Z,9.50
2022-11-01T17:29:21.099Z,9.50
2022-11-01T17:31:48.215Z,9.40
2022-11-01T17:34:17.419Z,9.40
2022-11-01T17:36:47.906Z,9.40
2022-11-01T17:39:17.757Z,9.40
2022-11-01T17:41:44.685Z,9.40
2022-11-01T17:44:12.331Z,9.40
2022-11-01T17:46:40.036Z,9.40
2022-11-01T17:49:07.008Z,9.40
2022-11-01T17:51:34.271Z,9.40
2022-11-01T17:54:01.160Z,9.40
2022-11-01T17:56:28.044Z,9.40
2022-11-01T17:58:54.859Z,9.40
2022-11-01T18:01:21.982Z,9.40
2022-11-01T18:03:49.153Z,9.40
2022-11-01T18:06:16.422Z,9.40
2022-11-01T18:08:47.308Z,9.40
2022-11-01T18:11:38.900Z,9.50
2022-11-01T18:14:39.409Z,9.50
2022-11-01T18:17:39.502Z,9.50
2022-11-01T18:20:29.937Z,9.50
2022-11-01T18:23:01.934Z,9.50
2022-11-01T18:25:42.134Z,9.50
2022-11-01T18:28:24.107Z,9.40
2022-11-01T18:31:11.510Z,9.40
2022-11-01T18:34:19.336Z,9.40
2022-11-01T18:36:53.655Z,9.40
2022-11-01T18:39:38.041Z,9.40
2022-11-01T18:42:10.388Z,9.40
2022-11-01T18:44:38.299Z,9.30
2022-11-01T18:47:17.199Z,9.30
2022-11-01T18:49:44.011Z,9.30
2022-11-01T18:52:17.878Z,9.30
2022-11-01T18:54:53.725Z,9.30
2022-11-01T18:57:26.296Z,9.30
2022-11-01T18:59:53.584Z,9.30
2022-11-01T19:02:28.406Z,9.30
2022-11-01T19:05:13.708Z,9.20
2022-11-01T19:08:09.049Z,9.20
2022-11-01T19:10:28.617Z,9.20
2022-11-01T19:12:56.276Z,9.20
2022-11-01T19:15:30.724Z,9.20
2022-11-01T19:17:58.408Z,9.20
2022-11-01T19:20:50.128Z,9.20
2022-11-01T19:23:24.035Z,9.20
2022-11-01T19:25:51.549Z,9.20
2022-11-01T19:28:33.451Z,9.20
2022-11-01T19:31:29.174Z,9.20
2022-11-01T19:33:59.444Z,9.20
2022-11-01T19:39:30.640Z,9.20
2022-11-01T19:42:06.464Z,9.30
2022-11-01T19:44:33.386Z,9.30
2022-11-01T19:47:22.737Z,9.30
2022-11-01T19:49:55.155Z,9.40
2022-11-01T19:52:33.235Z,9.40
2022-11-01T19:55:00.356Z,9.30
2022-11-01T19:57:27.251Z,9.30
2022-11-01T19:59:55.013Z,9.30
2022-11-01T20:02:23.140Z,9.30
2022-11-01T20:04:58.160Z,9.30
2022-11-01T20:07:27.023Z,9.20
2022-11-01T20:09:58.602Z,9.20
2022-11-01T20:12:25.804Z,9.20
2022-11-01T20:14:52.742Z,9.20
2022-11-01T20:17:19.601Z,9.20
2022-11-01T20:19:46.458Z,9.20
2022-11-01T20:22:13.394Z,9.10
2022-11-01T20:24:40.249Z,9.10
2022-11-01T20:27:07.411Z,9.10
2022-11-01T20:29:34.237Z,9.10
2022-11-01T20:32:01.073Z,9.00
2022-11-01T20:34:28.857Z,9.00
2022-11-01T20:37:27.101Z,9.00
2022-11-01T20:39:42.541Z,9.00
2022-11-01T20:42:09.558Z,9.00
2022-11-01T20:44:36.433Z,8.90
2022-11-01T20:47:03.313Z,8.90
2022-11-01T20:49:30.173Z,8.90
2022-11-01T20:52:03.805Z,8.90
2022-11-01T20:54:41.408Z,8.90
2022-11-01T20:57:15.671Z,8.90
2022-11-01T20:59:51.882Z,8.90
2022-11-01T21:02:19.479Z,8.80
2022-11-01T21:04:46.906Z,8.80
2022-11-01T21:07:14.624Z,8.80
2022-11-01T21:09:48.863Z,8.80
2022-11-01T21:12:40.662Z,8.70
2022-11-01T21:15:26.157Z,8.70
2022-11-01T21:18:16.437Z,8.70
2022-11-01T21:20:48.516Z,8.60
2022-11-01T21:23:21.143Z,8.60
2022-11-01T21:25:52.554Z,8.60
2022-11-01T21:28:42.209Z,8.60
2022-11-01T21:31:15.022Z,8.60
2022-11-01T21:33:47.900Z,8.60
2022-11-01T21:36:26.554Z,8.60
2022-11-01T21:39:27.064Z,8.70
2022-11-01T21:41:58.273Z,8.70
2022-11-01T21:44:46.344Z,8.70
2022-11-01T21:47:22.368Z,8.70
2022-11-01T21:49:49.910Z,8.60
2022-11-01T21:52:20.564Z,8.70
2022-11-01T21:54:48.532Z,8.70
2022-11-01T21:57:16.370Z,8.70
2022-11-01T21:59:43.765Z,8.70
2022-11-01T22:02:13.822Z,8.70
2022-11-01T22:04:41.386Z,8.70
2022-11-01T22:07:10.235Z,8.70
2022-11-01T22:09:38.043Z,8.70
2022-11-01T22:12:06.826Z,8.70
2022-11-01T22:14:34.728Z,8.70
2022-11-01T22:17:01.778Z,8.70
2022-11-01T22:19:28.721Z,8.70
2022-11-01T22:21:55.619Z,8.70
2022-11-01T22:24:24.722Z,8.70
2022-11-01T22:26:51.639Z,8.70
2022-11-01T22:29:18.757Z,8.70
2022-11-01T22:31:45.686Z,8.70
2022-11-01T22:34:12.669Z,8.70
2022-11-01T22:36:42.352Z,8.80
2022-11-01T22:39:35.628Z,8.70
2022-11-01T22:42:02.478Z,8.70
2022-11-01T22:44:32.287Z,8.80
2022-11-01T22:47:01.582Z,8.80
2022-11-01T22:49:49.812Z,8.80
2022-11-01T22:52:36.995Z,8.80
2022-11-01T22:55:12.768Z,8.80
2022-11-01T22:58:03.156Z,8.70
2022-11-01T23:00:39.065Z,8.80
2022-11-01T23:03:24.213Z,8.80
2022-11-01T23:05:54.069Z,8.80
2022-11-01T23:08:28.464Z,8.80
2022-11-01T23:10:56.084Z,8.80
2022-11-01T23:13:43.651Z,8.80
2022-11-01T23:16:25.418Z,8.80
2022-11-01T23:18:54.238Z,8.80
2022-11-01T23:21:22.633Z,8.80
2022-11-01T23:23:50.190Z,8.80
2022-11-01T23:26:19.251Z,8.80
2022-11-01T23:28:51.491Z,8.80
2022-11-01T23:31:18.762Z,8.80
2022-11-01T23:33:47.961Z,8.80
2022-11-01T23:36:26.208Z,8.80
2022-11-01T23:39:04.838Z,8.80
2022-11-01T23:41:52.387Z,8.80
2022-11-01T23:44:32.184Z,8.80
2022-11-01T23:47:31.025Z,8.70
2022-11-01T23:50:05.247Z,8.70
2022-11-01T23:52:47.817Z,8.70
2022-11-01T23:55:30.749Z,8.70
2022-11-01T23:58:01.535Z,8.70
